createdAt,value
2022-08-01T00:00:17.086Z,98161.38
2022-08-01T00:02:46.420Z,98155.94
2022-08-01T00:05:15.808Z,98161.94
2022-08-01T00:07:45.557Z,98156.41
2022-08-01T00:10:18.752Z,98155.91
2022-08-01T00:12:48.040Z,98158.13
2022-08-01T00:15:19.285Z,98156.53
2022-08-01T00:17:48.413Z,98153.44
2022-08-01T00:20:17.716Z,98156.53
2022-08-01T00:22:46.971Z,98154.56
2022-08-01T00:25:17.592Z,98152.06
2022-08-01T00:27:46.868Z,98155.63
2022-08-01T00:30:16.717Z,98144.47
2022-08-01T00:32:45.863Z,98143.91
2022-08-01T00:35:15.828Z,98151.00
2022-08-01T00:37:45.144Z,98158.78
2022-08-01T00:40:14.397Z,98145.06
2022-08-01T00:42:44.942Z,98138.59
2022-08-01T00:45:15.121Z,98138.88
2022-08-01T00:47:44.513Z,98139.50
2022-08-01T00:50:13.876Z,98142.78
2022-08-01T00:52:44.162Z,98140.03
2022-08-01T00:55:21.566Z,98131.84
2022-08-01T00:58:03.244Z,98136.91
2022-08-01T01:00:52.018Z,98130.13
2022-08-01T01:03:58.056Z,98127.69
2022-08-01T01:06:33.212Z,98131.13
2022-08-01T01:09:28.151Z,98133.91
2022-08-01T01:12:07.372Z,98135.94
2022-08-01T01:14:47.695Z,98147.44
2022-08-01T01:17:48.697Z,98135.81
2022-08-01T01:20:15.374Z,98144.25
2022-08-01T01:22:59.142Z,98140.16
2022-08-01T01:26:07.191Z,98127.22
2022-08-01T01:28:50.892Z,98129.88
2022-08-01T01:31:23.578Z,98129.66
2022-08-01T01:33:54.249Z,98144.22
2022-08-01T01:36:27.056Z,98140.13
2022-08-01T01:38:57.822Z,98136.16
2022-08-01T01:41:28.174Z,98137.50
2022-08-01T01:44:00.690Z,98132.84
2022-08-01T01:46:33.529Z,98129.72
2022-08-01T01:49:03.821Z,98120.88
2022-08-01T01:51:33.877Z,98126.56
2022-08-01T01:54:04.979Z,98125.59
2022-08-01T01:56:35.741Z,98128.63
2022-08-01T01:59:07.000Z,98132.53
2022-08-01T02:01:58.620Z,98132.50
2022-08-01T02:04:29.249Z,98125.03
2022-08-01T02:06:59.832Z,98129.00
2022-08-01T02:09:31.231Z,98131.44
2022-08-01T02:12:08.442Z,98129.06
2022-08-01T02:14:41.116Z,98133.28
2022-08-01T02:17:13.121Z,98131.34
2022-08-01T02:19:42.378Z,98132.03
2022-08-01T02:22:16.316Z,98127.31
2022-08-01T02:24:57.089Z,98131.41
2022-08-01T02:27:32.325Z,98131.09
2022-08-01T02:30:07.229Z,98127.47
2022-08-01T02:32:42.128Z,98131.09
2022-08-01T02:35:16.072Z,98122.78
2022-08-01T02:37:47.052Z,98126.34
2022-08-01T02:40:19.362Z,98122.47
2022-08-01T02:42:53.069Z,98114.56
2022-08-01T02:45:28.601Z,98108.88
2022-08-01T02:48:06.690Z,98118.75
2022-08-01T02:50:38.153Z,98115.34
2022-08-01T02:53:11.274Z,98112.16
2022-08-01T02:55:42.810Z,98112.06
2022-08-01T02:58:14.636Z,98115.69
2022-08-01T03:00:49.127Z,98117.41
2022-08-01T03:03:19.417Z,98117.69
2022-08-01T03:05:50.876Z,98126.03
2022-08-01T03:08:22.587Z,98130.84
2022-08-01T03:10:54.691Z,98126.53
2022-08-01T03:13:25.547Z,98145.53
2022-08-01T03:15:58.185Z,98135.88
2022-08-01T03:18:28.985Z,98130.47
2022-08-01T03:21:01.256Z,98135.91
2022-08-01T03:23:38.313Z,98126.28
2022-08-01T03:26:08.989Z,98126.75
2022-08-01T03:28:39.697Z,98128.97
2022-08-01T03:31:11.253Z,98127.75
2022-08-01T03:33:40.538Z,98124.00
2022-08-01T03:36:14.738Z,98122.53
2022-08-01T03:38:47.843Z,98120.50
2022-08-01T03:41:23.394Z,98124.59
2022-08-01T03:43:59.553Z,98119.25
2022-08-01T03:46:37.596Z,98118.16
2022-08-01T03:49:19.627Z,98124.94
2022-08-01T03:51:53.418Z,98122.03
2022-08-01T03:54:26.361Z,98117.59
2022-08-01T03:56:56.122Z,98112.75
2022-08-01T03:59:26.030Z,98119.25
2022-08-01T04:01:57.605Z,98114.81
2022-08-01T04:04:27.428Z,98116.06
2022-08-01T04:06:56.734Z,98118.91
2022-08-01T04:09:26.008Z,98122.09
2022-08-01T04:11:55.299Z,98118.44
2022-08-01T04:14:25.375Z,98124.94
2022-08-01T04:16:57.592Z,98125.06
2022-08-01T04:19:27.005Z,98126.38
2022-08-01T04:21:56.311Z,98120.31
2022-08-01T04:24:30.152Z,98117.28
2022-08-01T04:27:02.458Z,98117.94
2022-08-01T04:29:34.050Z,98114.78
2022-08-01T04:32:06.314Z,98115.13
2022-08-01T04:34:36.921Z,98118.44
2022-08-01T04:37:07.554Z,98124.59
2022-08-01T04:39:50.225Z,98125.25
2022-08-01T04:42:26.772Z,98121.16
2022-08-01T04:45:03.394Z,98130.28
2022-08-01T04:47:34.487Z,98120.22
2022-08-01T04:50:09.193Z,98125.25
2022-08-01T04:52:40.305Z,98118.31
2022-08-01T04:55:10.881Z,98125.91
2022-08-01T04:57:45.049Z,98128.13
2022-08-01T05:00:17.585Z,98124.97
2022-08-01T05:02:48.660Z,98137.31
2022-08-01T05:05:17.859Z,98137.00
2022-08-01T05:07:47.036Z,98138.00
2022-08-01T05:10:16.288Z,98133.22
2022-08-01T05:12:45.481Z,98133.22
2022-08-01T05:15:15.607Z,98131.22
2022-08-01T05:17:45.068Z,98142.75
2022-08-01T05:20:15.733Z,98140.06
2022-08-01T05:22:45.092Z,98145.59
2022-08-01T05:25:14.622Z,98140.69
2022-08-01T05:27:51.083Z,98137.19
2022-08-01T05:30:20.497Z,98132.41
2022-08-01T05:32:49.793Z,98123.88
2022-08-01T05:35:20.426Z,98133.00
2022-08-01T05:37:49.621Z,98129.38
2022-08-01T05:40:18.943Z,98134.06
2022-08-01T05:42:48.303Z,98142.72
2022-08-01T05:45:17.498Z,98137.13
2022-08-01T05:47:46.784Z,98135.06
2022-08-01T05:50:15.991Z,98138.16
2022-08-01T05:52:46.703Z,98142.75
2022-08-01T05:55:16.016Z,98154.41
2022-08-01T05:57:46.306Z,98146.47
2022-08-01T06:00:17.418Z,98132.38
2022-08-01T06:02:46.790Z,98143.81
2022-08-01T06:05:16.046Z,98144.22
2022-08-01T06:07:46.664Z,98138.59
2022-08-01T06:10:15.969Z,98145.81
2022-08-01T06:12:46.415Z,98143.50
2022-08-01T06:15:15.658Z,98146.88
2022-08-01T06:17:45.110Z,98144.31
2022-08-01T06:20:14.471Z,98146.06
2022-08-01T06:22:43.726Z,98139.97
2022-08-01T06:25:17.470Z,98144.88
2022-08-01T06:27:48.652Z,98148.41
2022-08-01T06:30:18.040Z,98151.66
2022-08-01T06:32:48.215Z,98157.56
2022-08-01T06:35:19.709Z,98155.25
2022-08-01T06:37:50.035Z,98157.22
2022-08-01T06:40:20.701Z,98154.66
2022-08-01T06:42:49.990Z,98165.50
2022-08-01T06:45:19.705Z,98171.81
2022-08-01T06:47:50.891Z,98164.94
2022-08-01T06:50:20.565Z,98175.88
2022-08-01T06:52:49.964Z,98172.19
2022-08-01T06:55:23.067Z,98171.16
2022-08-01T06:57:54.294Z,98169.88
2022-08-01T07:00:26.080Z,98168.88
2022-08-01T07:02:57.637Z,98162.75
2022-08-01T07:05:27.432Z,98166.78
2022-08-01T07:07:56.965Z,98178.06
2022-08-01T07:10:27.582Z,98163.84
2022-08-01T07:12:56.817Z,98173.84
2022-08-01T07:15:27.730Z,98167.94
2022-08-01T07:17:58.058Z,98160.31
2022-08-01T07:20:27.259Z,98162.84
2022-08-01T07:22:56.668Z,98154.66
2022-08-01T07:25:27.416Z,98150.22
2022-08-01T07:27:56.685Z,98149.97
2022-08-01T07:30:26.263Z,98157.38
2022-08-01T07:32:55.602Z,98158.53
2022-08-01T07:35:24.884Z,98162.63
2022-08-01T07:37:54.484Z,98158.25
2022-08-01T07:40:23.748Z,98161.19
2022-08-01T07:42:54.327Z,98160.75
2022-08-01T07:45:24.327Z,98152.72
2022-08-01T07:47:53.704Z,98154.91
2022-08-01T07:50:22.872Z,98149.84
2022-08-01T07:52:52.091Z,98154.84
2022-08-01T07:55:21.457Z,98146.25
2022-08-01T07:57:50.777Z,98148.81
2022-08-01T08:00:21.411Z,98144.25
2022-08-01T08:02:51.837Z,98149.25
2022-08-01T08:05:57.851Z,98158.06
2022-08-01T08:08:12.608Z,98165.34
2022-08-01T08:10:41.992Z,98164.75
2022-08-01T08:13:11.199Z,98166.88
2022-08-01T08:15:48.449Z,98172.91
2022-08-01T08:18:18.369Z,98169.47
2022-08-01T08:20:47.614Z,98184.34
2022-08-01T08:23:42.869Z,98171.44
2022-08-01T08:26:13.767Z,98177.44
2022-08-01T08:28:43.018Z,98179.59
2022-08-01T08:31:25.621Z,98183.81
2022-08-01T08:34:02.882Z,98187.03
2022-08-01T08:36:32.343Z,98177.13
2022-08-01T08:39:02.857Z,98182.13
2022-08-01T08:41:37.779Z,98175.09
2022-08-01T08:44:09.988Z,98168.09
2022-08-01T08:46:45.468Z,98172.28
2022-08-01T08:49:19.685Z,98177.50
2022-08-01T08:51:52.692Z,98169.84
2022-08-01T08:54:29.087Z,98176.56
2022-08-01T08:57:02.770Z,98175.41
2022-08-01T08:59:32.118Z,98181.91
2022-08-01T09:02:02.729Z,98171.19
2022-08-01T09:04:32.554Z,98179.28
2022-08-01T09:07:01.741Z,98176.59
2022-08-01T09:09:30.981Z,98164.31
2022-08-01T09:12:01.612Z,98171.06
2022-08-01T09:14:32.591Z,98174.00
2022-08-01T09:17:07.759Z,98170.31
2022-08-01T09:19:41.687Z,98164.38
2022-08-01T09:22:14.426Z,98167.84
2022-08-01T09:24:44.490Z,98174.34
2022-08-01T09:27:25.058Z,98173.16
2022-08-01T09:30:01.153Z,98174.56
2022-08-01T09:32:36.471Z,98172.69
2022-08-01T09:35:30.985Z,98179.16
2022-08-01T09:38:16.663Z,98172.22
2022-08-01T09:40:53.104Z,98180.06
2022-08-01T09:43:25.904Z,98163.69
2022-08-01T09:45:58.042Z,98175.81
2022-08-01T09:48:30.110Z,98172.78
2022-08-01T09:51:07.114Z,98175.16
2022-08-01T09:53:53.459Z,98177.47
2022-08-01T09:56:25.306Z,98178.59
2022-08-01T09:59:00.514Z,98167.47
2022-08-01T10:01:45.045Z,98168.78
2022-08-01T10:04:18.733Z,98165.38
2022-08-01T10:06:53.593Z,98159.13
2022-08-01T10:09:39.914Z,98158.47
2022-08-01T10:12:15.084Z,98159.38
2022-08-01T10:14:50.442Z,98163.34
2022-08-01T10:17:22.565Z,98158.34
2022-08-01T10:19:55.811Z,98158.47
2022-08-01T10:22:31.064Z,98161.47
2022-08-01T10:25:06.956Z,98152.56
2022-08-01T10:27:40.703Z,98149.88
2022-08-01T10:30:19.683Z,98139.88
2022-08-01T10:32:54.818Z,98139.41
2022-08-01T10:35:46.767Z,98140.50
2022-08-01T10:38:17.700Z,98144.69
2022-08-01T10:40:47.762Z,98136.97
2022-08-01T10:43:21.889Z,98135.72
2022-08-01T10:45:53.108Z,98137.97
2022-08-01T10:48:29.757Z,98134.06
2022-08-01T10:51:18.527Z,98135.94
2022-08-01T10:53:54.481Z,98129.66
2022-08-01T10:56:26.893Z,98118.09
2022-08-01T10:59:06.471Z,98116.84
2022-08-01T11:01:44.875Z,98111.81
2022-08-01T11:04:17.606Z,98125.38
2022-08-01T11:07:07.331Z,98118.78
2022-08-01T11:09:51.442Z,98108.34
2022-08-01T11:12:23.569Z,98103.78
2022-08-01T11:15:30.048Z,98103.66
2022-08-01T11:18:05.689Z,98095.72
2022-08-01T11:20:41.904Z,98097.81
2022-08-01T11:23:23.490Z,98099.25
2022-08-01T11:26:28.974Z,98092.38
2022-08-01T11:29:21.228Z,98091.75
2022-08-01T11:31:53.950Z,98089.81
2022-08-01T11:34:56.444Z,98093.19
2022-08-01T11:37:52.303Z,98091.59
2022-08-01T11:40:25.626Z,98092.13
2022-08-01T11:43:19.853Z,98087.34
2022-08-01T11:45:50.615Z,98090.38
2022-08-01T11:48:21.522Z,98090.28
2022-08-01T11:51:02.015Z,98087.47
2022-08-01T11:53:34.379Z,98081.81
2022-08-01T11:56:07.913Z,98084.38
2022-08-01T11:58:39.232Z,98069.75
2022-08-01T12:01:15.804Z,98069.88
2022-08-01T12:03:46.705Z,98073.31
2022-08-01T12:06:30.360Z,98062.97
2022-08-01T12:09:20.398Z,98060.75
2022-08-01T12:11:51.287Z,98068.66
2022-08-01T12:14:24.181Z,98067.50
2022-08-01T12:17:05.050Z,98068.00
2022-08-01T12:19:37.605Z,98058.75
2022-08-01T12:22:13.237Z,98051.69
2022-08-01T12:24:45.874Z,98058.75
2022-08-01T12:27:30.089Z,98040.97
2022-08-01T12:30:02.283Z,98041.50
2022-08-01T12:32:35.556Z,98044.03
2022-08-01T12:35:08.129Z,98053.25
2022-08-01T12:37:39.323Z,98052.63
2022-08-01T12:40:15.642Z,98062.66
2022-08-01T12:42:49.357Z,98051.78
2022-08-01T12:45:26.532Z,98051.22
2022-08-01T12:48:10.222Z,98046.56
2022-08-01T12:50:40.662Z,98044.22
2022-08-01T12:53:16.800Z,98043.69
2022-08-01T12:56:13.799Z,98042.91
2022-08-01T12:58:44.433Z,98046.66
2022-08-01T13:01:14.314Z,98041.53
2022-08-01T13:04:01.461Z,98054.03
2022-08-01T13:06:36.484Z,98051.94
2022-08-01T13:09:10.091Z,98038.50
2022-08-01T13:11:39.548Z,98044.59
2022-08-01T13:14:31.424Z,98035.41
2022-08-01T13:17:00.680Z,98057.22
2022-08-01T13:19:44.930Z,98053.66
2022-08-01T13:22:14.203Z,98050.81
2022-08-01T13:24:43.654Z,98047.34
2022-08-01T13:27:24.869Z,98057.31
2022-08-01T13:29:55.516Z,98064.22
2022-08-01T13:32:30.164Z,98058.97
2022-08-01T13:35:05.081Z,98058.53
2022-08-01T13:37:34.530Z,98056.28
2022-08-01T13:40:13.144Z,98063.63
2022-08-01T13:42:42.348Z,98060.81
2022-08-01T13:45:15.207Z,98065.25
2022-08-01T13:48:03.645Z,98065.59
2022-08-01T13:50:37.957Z,98066.81
2022-08-01T13:53:07.387Z,98066.41
2022-08-01T13:55:36.676Z,98060.25
2022-08-01T13:58:06.422Z,98061.16
2022-08-01T14:00:37.500Z,98073.22
2022-08-01T14:03:06.873Z,98076.91
2022-08-01T14:05:36.116Z,98075.78
2022-08-01T14:08:06.484Z,98085.47
2022-08-01T14:10:38.345Z,98082.84
2022-08-01T14:13:16.588Z,98083.34
2022-08-01T14:15:52.647Z,98085.91
2022-08-01T14:18:24.403Z,98093.38
2022-08-01T14:20:55.522Z,98096.69
2022-08-01T14:23:28.983Z,98108.06
2022-08-01T14:26:04.141Z,98121.88
2022-08-01T14:28:36.654Z,98136.97
2022-08-01T14:31:08.797Z,98139.69
2022-08-01T14:33:38.047Z,98130.09
2022-08-01T14:36:30.525Z,98118.84
2022-08-01T14:39:00.354Z,98113.63
2022-08-01T14:41:31.332Z,98099.03
2022-08-01T14:44:06.839Z,98088.09
2022-08-01T14:46:37.609Z,98095.19
2022-08-01T14:49:26.963Z,98084.16
2022-08-01T14:51:59.936Z,98097.84
2022-08-01T14:54:32.405Z,98085.09
2022-08-01T14:57:01.778Z,98078.63
2022-08-01T14:59:32.919Z,98069.97
2022-08-01T15:02:05.894Z,98085.00
2022-08-01T15:04:35.650Z,98052.19
2022-08-01T15:07:05.047Z,98072.72
2022-08-01T15:09:34.505Z,98070.66
2022-08-01T15:12:04.678Z,98066.00
2022-08-01T15:14:52.891Z,98060.31
2022-08-01T15:17:26.174Z,98067.34
2022-08-01T15:19:57.810Z,98079.72
2022-08-01T15:22:28.546Z,98102.38
2022-08-01T15:25:00.290Z,98106.69
2022-08-01T15:27:30.760Z,98110.03
2022-08-01T15:30:00.126Z,98112.69
2022-08-01T15:32:31.149Z,98118.06
2022-08-01T15:35:01.297Z,98119.16
2022-08-01T15:37:30.577Z,98120.97
2022-08-01T15:39:59.911Z,98118.84
2022-08-01T15:42:29.319Z,98114.50
2022-08-01T15:45:01.426Z,98128.63
2022-08-01T15:47:32.185Z,98122.44
2022-08-01T15:50:02.921Z,98124.19
2022-08-01T15:52:32.166Z,98126.00
2022-08-01T15:55:01.676Z,98118.97
2022-08-01T15:57:30.842Z,98116.84
2022-08-01T16:00:01.098Z,98110.03
2022-08-01T16:02:31.744Z,98109.25
2022-08-01T16:05:01.041Z,98109.06
2022-08-01T16:07:30.249Z,98113.06
2022-08-01T16:10:00.620Z,98110.56
2022-08-01T16:12:29.896Z,98118.06
2022-08-01T16:14:59.333Z,98114.59
2022-08-01T16:17:28.673Z,98109.66
2022-08-01T16:19:59.511Z,98098.59
2022-08-01T16:22:28.759Z,98096.44
2022-08-01T16:25:00.856Z,98097.19
2022-08-01T16:27:31.115Z,98086.81
2022-08-01T16:30:00.452Z,98086.78
2022-08-01T16:32:43.472Z,98085.81
2022-08-01T16:35:20.465Z,98091.72
2022-08-01T16:37:49.871Z,98083.44
2022-08-01T16:40:19.072Z,98081.28
2022-08-01T16:42:48.353Z,98091.41
2022-08-01T16:45:21.090Z,98083.50
2022-08-01T16:47:50.346Z,98076.16
2022-08-01T16:50:28.205Z,98082.50
2022-08-01T16:52:58.156Z,98076.09
2022-08-01T16:55:27.494Z,98080.72
2022-08-01T16:57:57.805Z,98065.78
2022-08-01T17:00:27.989Z,98064.94
2022-08-01T17:02:58.460Z,98068.50
2022-08-01T17:05:31.168Z,98084.16
2022-08-01T17:08:00.397Z,98089.13
2022-08-01T17:10:29.739Z,98084.75
2022-08-01T17:13:01.506Z,98092.84
2022-08-01T17:15:36.380Z,98096.13
2022-08-01T17:18:07.499Z,98094.69
2022-08-01T17:20:38.340Z,98108.38
2022-08-01T17:23:08.605Z,98102.97
2022-08-01T17:25:38.009Z,98099.50
2022-08-01T17:28:07.219Z,98104.63
2022-08-01T17:30:37.697Z,98111.09
2022-08-01T17:33:07.078Z,98103.38
2022-08-01T17:35:37.597Z,98107.84
2022-08-01T17:38:06.870Z,98106.19
2022-08-01T17:40:40.746Z,98105.94
2022-08-01T17:43:10.777Z,98103.06
2022-08-01T17:45:50.536Z,98100.63
2022-08-01T17:48:20.842Z,98099.84
2022-08-01T17:50:51.366Z,98096.44
2022-08-01T17:53:21.439Z,98096.81
2022-08-01T17:55:55.550Z,98096.31
2022-08-01T17:58:33.681Z,98093.25
2022-08-01T18:01:18.407Z,98095.19
2022-08-01T18:03:49.317Z,98094.19
2022-08-01T18:06:23.338Z,98107.09
2022-08-01T18:08:55.571Z,98098.03
2022-08-01T18:11:27.561Z,98096.47
2022-08-01T18:13:59.436Z,98098.69
2022-08-01T18:16:29.274Z,98104.47
2022-08-01T18:18:58.654Z,98103.97
2022-08-01T18:21:32.218Z,98107.00
2022-08-01T18:24:01.703Z,98111.56
2022-08-01T18:26:31.157Z,98111.41
2022-08-01T18:29:00.286Z,98114.47
2022-08-01T18:31:29.494Z,98109.47
2022-08-01T18:33:59.826Z,98124.38
2022-08-01T18:36:33.003Z,98122.00
2022-08-01T18:39:10.603Z,98130.25
2022-08-01T18:41:40.736Z,98130.19
2022-08-01T18:44:10.085Z,98143.94
2022-08-01T18:46:41.756Z,98136.59
2022-08-01T18:49:13.192Z,98135.31
2022-08-01T18:51:45.344Z,98143.28
2022-08-01T18:54:15.527Z,98148.66
2022-08-01T18:56:46.434Z,98146.38
2022-08-01T18:59:15.784Z,98151.97
2022-08-01T19:01:45.373Z,98151.19
2022-08-01T19:04:14.697Z,98168.38
2022-08-01T19:06:47.721Z,98167.66
2022-08-01T19:09:20.814Z,98164.78
2022-08-01T19:11:50.270Z,98183.59
2022-08-01T19:14:19.521Z,98181.06
2022-08-01T19:16:48.843Z,98189.03
2022-08-01T19:19:27.646Z,98182.84
2022-08-01T19:21:58.990Z,98197.28
2022-08-01T19:24:28.509Z,98193.53
2022-08-01T19:27:05.082Z,98202.53
2022-08-01T19:29:40.236Z,98206.88
2022-08-01T19:32:11.418Z,98205.47
2022-08-01T19:34:49.916Z,98197.09
2022-08-01T19:37:25.402Z,98201.84
2022-08-01T19:39:57.766Z,98200.66
2022-08-01T19:42:28.332Z,98209.56
2022-08-01T19:44:59.014Z,98210.63
2022-08-01T19:47:51.609Z,98218.00
2022-08-01T19:50:17.453Z,98213.50
2022-08-01T19:52:52.003Z,98210.53
2022-08-01T19:55:22.866Z,98220.56
2022-08-01T20:00:44.330Z,98221.09
2022-08-01T20:03:16.436Z,98218.97
2022-08-01T20:05:45.829Z,98210.09
2022-08-01T20:08:17.929Z,98224.22
2022-08-01T20:10:51.526Z,98218.50
2022-08-01T20:13:22.639Z,98215.34
2022-08-01T20:15:53.934Z,98213.56
2022-08-01T20:18:23.618Z,98206.03
2022-08-01T20:20:54.876Z,98214.66
2022-08-01T20:23:27.475Z,98212.47
2022-08-01T20:26:00.369Z,98220.66
2022-08-01T20:28:31.454Z,98222.94
2022-08-01T20:31:05.677Z,98219.50
2022-08-01T20:33:40.632Z,98223.41
2022-08-01T20:36:12.261Z,98226.16
2022-08-01T20:38:57.622Z,98229.56
2022-08-01T20:41:28.319Z,98224.78
2022-08-01T20:44:01.505Z,98220.47
2022-08-01T20:46:30.869Z,98225.81
2022-08-01T20:49:00.537Z,98228.38
2022-08-01T20:51:31.569Z,98224.25
2022-08-01T20:54:02.716Z,98216.41
2022-08-01T20:56:39.009Z,98228.97
2022-08-01T20:59:54.938Z,98230.31
2022-08-01T21:02:16.457Z,98226.88
2022-08-01T21:04:55.738Z,98235.47
2022-08-01T21:07:27.925Z,98231.03
2022-08-01T21:10:09.070Z,98236.72
2022-08-01T21:12:45.941Z,98230.38
2022-08-01T21:15:25.293Z,98231.50
2022-08-01T21:18:03.626Z,98240.22
2022-08-01T21:20:36.208Z,98224.34
2022-08-01T21:23:15.847Z,98237.06
2022-08-01T21:25:49.344Z,98228.78
2022-08-01T21:28:20.701Z,98231.34
2022-08-01T21:30:55.957Z,98223.69
2022-08-01T21:33:27.893Z,98231.31
2022-08-01T21:36:05.945Z,98232.25
2022-08-01T21:38:40.243Z,98234.38
2022-08-01T21:41:10.991Z,98231.81
2022-08-01T21:43:41.284Z,98236.44
2022-08-01T21:46:12.173Z,98235.84
2022-08-01T21:48:42.925Z,98234.88
2022-08-01T21:51:28.013Z,98230.31
2022-08-01T21:54:09.863Z,98234.72
2022-08-01T21:56:54.241Z,98244.41
2022-08-01T21:59:33.866Z,98244.50
2022-08-01T22:02:05.770Z,98237.53
2022-08-01T22:04:52.792Z,98244.25
2022-08-01T22:07:26.812Z,98235.84
2022-08-01T22:09:58.430Z,98247.72
2022-08-01T22:12:30.235Z,98242.59
2022-08-01T22:15:03.526Z,98249.88
2022-08-01T22:17:34.117Z,98257.19
2022-08-01T22:20:03.509Z,98246.47
2022-08-01T22:22:51.408Z,98250.63
2022-08-01T22:25:24.836Z,98243.66
2022-08-01T22:28:09.639Z,98262.94
2022-08-01T22:30:42.939Z,98256.31
2022-08-01T22:33:16.384Z,98255.69
2022-08-01T22:35:47.979Z,98262.66
2022-08-01T22:38:20.587Z,98264.78
2022-08-01T22:40:52.989Z,98260.41
2022-08-01T22:43:31.475Z,98250.28
2022-08-01T22:46:26.299Z,98257.25
2022-08-01T22:49:09.399Z,98267.41
2022-08-01T22:51:54.828Z,98255.06
2022-08-01T22:54:35.299Z,98262.34
2022-08-01T22:57:07.491Z,98267.69
2022-08-01T22:59:47.616Z,98262.31
2022-08-01T23:02:21.798Z,98256.16
2022-08-01T23:04:57.588Z,98265.78
2022-08-01T23:07:34.561Z,98261.34
2022-08-01T23:10:08.263Z,98264.50
2022-08-01T23:12:38.838Z,98262.31
2022-08-01T23:15:11.970Z,98257.88
2022-08-01T23:17:43.715Z,98265.78
2022-08-01T23:20:13.674Z,98266.44
2022-08-01T23:22:43.486Z,98265.16
2022-08-01T23:25:15.923Z,98267.38
2022-08-01T23:28:03.806Z,98277.47
2022-08-01T23:30:37.363Z,98270.34
2022-08-01T23:33:06.652Z,98270.06
2022-08-01T23:35:38.936Z,98260.72
2022-08-01T23:38:10.260Z,98258.81
2022-08-01T23:40:40.148Z,98261.81
2022-08-01T23:43:16.190Z,98249.94
2022-08-01T23:46:03.996Z,98250.88
2022-08-01T23:48:35.703Z,98251.66
2022-08-01T23:51:06.133Z,98244.88
2022-08-01T23:53:38.538Z,98235.63
2022-08-01T23:56:08.253Z,98236.34
2022-08-01T23:58:37.473Z,98232.53
